sensor_id;sensor_type;location;lat;lon;timestamp;P1;durP1;ratioP1;P2;durP2;ratioP2
25854;SDS011;13680;49.936;11.344;2023-07-31T00:02:01;6.22;;;1.90;;
25854;SDS011;13680;49.936;11.344;2023-07-31T00:04:26;12.18;;;2.72;;
25854;SDS011;13680;49.936;11.344;2023-07-31T00:06:51;10.30;;;2.67;;
25854;SDS011;13680;49.936;11.344;2023-07-31T00:09:17;6.95;;;2.55;;
25854;SDS011;13680;49.936;11.344;2023-07-31T00:11:42;5.63;;;3.03;;
25854;SDS011;13680;49.936;11.344;2023-07-31T00:14:07;7.60;;;2.85;;
25854;SDS011;13680;49.936;11.344;2023-07-31T00:16:33;8.23;;;3.08;;
25854;SDS011;13680;49.936;11.344;2023-07-31T00:18:58;5.45;;;2.88;;
25854;SDS011;13680;49.936;11.344;2023-07-31T00:21:23;5.75;;;3.42;;
25854;SDS011;13680;49.936;11.344;2023-07-31T00:23:49;6.75;;;2.88;;
25854;SDS011;13680;49.936;11.344;2023-07-31T00:26:15;8.75;;;2.10;;
25854;SDS011;13680;49.936;11.344;2023-07-31T00:28:40;9.65;;;2.90;;
25854;SDS011;13680;49.936;11.344;2023-07-31T00:31:05;9.82;;;2.40;;
25854;SDS011;13680;49.936;11.344;2023-07-31T00:33:31;7.65;;;2.67;;
25854;SDS011;13680;49.936;11.344;2023-07-31T00:35:56;8.30;;;2.83;;
25854;SDS011;13680;49.936;11.344;2023-07-31T00:38:22;3.53;;;2.60;;
25854;SDS011;13680;49.936;11.344;2023-07-31T00:40:47;7.68;;;2.47;;
25854;SDS011;13680;49.936;11.344;2023-07-31T00:43:12;5.82;;;2.50;;
25854;SDS011;13680;49.936;11.344;2023-07-31T00:45:38;6.72;;;2.97;;
25854;SDS011;13680;49.936;11.344;2023-07-31T00:48:04;6.63;;;2.40;;
25854;SDS011;13680;49.936;11.344;2023-07-31T00:50:31;4.38;;;2.42;;
25854;SDS011;13680;49.936;11.344;2023-07-31T00:52:56;15.90;;;2.70;;
25854;SDS011;13680;49.936;11.344;2023-07-31T00:55:22;8.43;;;2.60;;
25854;SDS011;13680;49.936;11.344;2023-07-31T00:57:47;6.85;;;2.45;;
25854;SDS011;13680;49.936;11.344;2023-07-31T01:00:13;6.78;;;2.30;;
25854;SDS011;13680;49.936;11.344;2023-07-31T01:02:38;6.95;;;2.90;;
25854;SDS011;13680;49.936;11.344;2023-07-31T01:05:04;3.88;;;2.13;;
25854;SDS011;13680;49.936;11.344;2023-07-31T01:08:15;6.63;;;2.22;;
25854;SDS011;13680;49.936;11.344;2023-07-31T01:10:30;9.65;;;2.78;;
25854;SDS011;13680;49.936;11.344;2023-07-31T01:13:05;7.07;;;2.53;;
25854;SDS011;13680;49.936;11.344;2023-07-31T01:15:31;10.43;;;2.47;;
25854;SDS011;13680;49.936;11.344;2023-07-31T01:17:56;6.40;;;2.83;;
25854;SDS011;13680;49.936;11.344;2023-07-31T01:20:22;2.88;;;2.20;;
25854;SDS011;13680;49.936;11.344;2023-07-31T01:22:54;4.45;;;2.45;;
25854;SDS011;13680;49.936;11.344;2023-07-31T01:28:25;6.75;;;2.50;;
25854;SDS011;13680;49.936;11.344;2023-07-31T01:30:58;7.18;;;2.50;;
25854;SDS011;13680;49.936;11.344;2023-07-31T01:33:25;5.90;;;2.53;;
25854;SDS011;13680;49.936;11.344;2023-07-31T01:35:50;8.18;;;2.40;;
25854;SDS011;13680;49.936;11.344;2023-07-31T01:38:20;8.40;;;2.47;;
25854;SDS011;13680;49.936;11.344;2023-07-31T01:40:48;13.40;;;2.45;;
25854;SDS011;13680;49.936;11.344;2023-07-31T01:43:16;5.60;;;2.65;;
25854;SDS011;13680;49.936;11.344;2023-07-31T01:45:42;8.75;;;2.65;;
25854;SDS011;13680;49.936;11.344;2023-07-31T01:48:07;5.60;;;2.67;;
25854;SDS011;13680;49.936;11.344;2023-07-31T01:50:32;7.05;;;2.72;;
25854;SDS011;13680;49.936;11.344;2023-07-31T01:52:58;5.00;;;2.47;;
25854;SDS011;13680;49.936;11.344;2023-07-31T01:55:23;6.25;;;2.28;;
25854;SDS011;13680;49.936;11.344;2023-07-31T01:57:48;8.98;;;2.00;;
25854;SDS011;13680;49.936;11.344;2023-07-31T02:00:14;4.45;;;1.70;;
25854;SDS011;13680;49.936;11.344;2023-07-31T02:02:39;6.57;;;2.42;;
25854;SDS011;13680;49.936;11.344;2023-07-31T02:05:05;5.97;;;2.22;;
25854;SDS011;13680;49.936;11.344;2023-07-31T02:07:30;4.13;;;2.45;;
25854;SDS011;13680;49.936;11.344;2023-07-31T02:09:56;6.75;;;2.30;;
25854;SDS011;13680;49.936;11.344;2023-07-31T02:12:21;7.82;;;2.42;;
25854;SDS011;13680;49.936;11.344;2023-07-31T02:14:46;5.80;;;2.50;;
25854;SDS011;13680;49.936;11.344;2023-07-31T02:17:12;10.75;;;2.13;;
25854;SDS011;13680;49.936;11.344;2023-07-31T02:19:37;4.82;;;2.50;;
25854;SDS011;13680;49.936;11.344;2023-07-31T02:22:02;10.50;;;2.33;;
25854;SDS011;13680;49.936;11.344;2023-07-31T02:24:27;6.53;;;2.63;;
25854;SDS011;13680;49.936;11.344;2023-07-31T02:26:53;18.80;;;3.20;;
25854;SDS011;13680;49.936;11.344;2023-07-31T02:29:18;9.60;;;2.60;;
25854;SDS011;13680;49.936;11.344;2023-07-31T02:31:43;8.35;;;2.38;;
25854;SDS011;13680;49.936;11.344;2023-07-31T02:34:09;10.05;;;2.70;;
25854;SDS011;13680;49.936;11.344;2023-07-31T02:36:34;7.32;;;2.03;;
25854;SDS011;13680;49.936;11.344;2023-07-31T02:38:59;8.40;;;2.38;;
25854;SDS011;13680;49.936;11.344;2023-07-31T02:41:25;5.80;;;2.42;;
25854;SDS011;13680;49.936;11.344;2023-07-31T02:43:50;5.47;;;2.28;;
25854;SDS011;13680;49.936;11.344;2023-07-31T02:46:15;5.65;;;2.30;;
25854;SDS011;13680;49.936;11.344;2023-07-31T02:48:41;7.82;;;2.40;;
25854;SDS011;13680;49.936;11.344;2023-07-31T02:51:06;5.78;;;2.08;;
25854;SDS011;13680;49.936;11.344;2023-07-31T02:53:31;8.07;;;2.40;;
25854;SDS011;13680;49.936;11.344;2023-07-31T02:55:57;7.63;;;2.60;;
25854;SDS011;13680;49.936;11.344;2023-07-31T02:58:22;10.52;;;2.80;;
25854;SDS011;13680;49.936;11.344;2023-07-31T03:00:47;4.55;;;2.58;;
25854;SDS011;13680;49.936;11.344;2023-07-31T03:03:12;5.85;;;2.10;;
25854;SDS011;13680;49.936;11.344;2023-07-31T03:05:38;9.20;;;2.50;;
25854;SDS011;13680;49.936;11.344;2023-07-31T03:08:03;6.18;;;2.38;;
25854;SDS011;13680;49.936;11.344;2023-07-31T03:10:29;7.32;;;2.50;;
25854;SDS011;13680;49.936;11.344;2023-07-31T03:12:54;7.28;;;2.70;;
25854;SDS011;13680;49.936;11.344;2023-07-31T03:15:19;5.88;;;3.00;;
25854;SDS011;13680;49.936;11.344;2023-07-31T03:17:45;7.10;;;2.30;;
25854;SDS011;13680;49.936;11.344;2023-07-31T03:20:10;4.38;;;2.50;;
25854;SDS011;13680;49.936;11.344;2023-07-31T03:22:36;6.60;;;2.60;;
25854;SDS011;13680;49.936;11.344;2023-07-31T03:25:02;10.77;;;2.80;;
25854;SDS011;13680;49.936;11.344;2023-07-31T03:27:28;6.53;;;2.30;;
25854;SDS011;13680;49.936;11.344;2023-07-31T03:29:53;4.35;;;2.40;;
25854;SDS011;13680;49.936;11.344;2023-07-31T03:32:18;5.80;;;2.30;;
25854;SDS011;13680;49.936;11.344;2023-07-31T03:34:44;7.40;;;2.13;;
25854;SDS011;13680;49.936;11.344;2023-07-31T03:37:09;3.95;;;1.85;;
25854;SDS011;13680;49.936;11.344;2023-07-31T03:39:34;5.22;;;1.98;;
25854;SDS011;13680;49.936;11.344;2023-07-31T03:42:00;7.97;;;2.63;;
25854;SDS011;13680;49.936;11.344;2023-07-31T03:44:25;4.00;;;2.50;;
25854;SDS011;13680;49.936;11.344;2023-07-31T03:46:51;6.93;;;2.53;;
25854;SDS011;13680;49.936;11.344;2023-07-31T03:49:16;6.25;;;2.15;;
25854;SDS011;13680;49.936;11.344;2023-07-31T03:51:42;12.35;;;2.50;;
25854;SDS011;13680;49.936;11.344;2023-07-31T03:54:07;7.47;;;2.00;;
25854;SDS011;13680;49.936;11.344;2023-07-31T03:56:33;2.85;;;2.03;;
25854;SDS011;13680;49.936;11.344;2023-07-31T03:58:58;6.00;;;2.22;;
25854;SDS011;13680;49.936;11.344;2023-07-31T04:01:24;10.63;;;2.28;;
25854;SDS011;13680;49.936;11.344;2023-07-31T04:03:49;6.22;;;2.30;;
25854;SDS011;13680;49.936;11.344;2023-07-31T04:06:14;8.65;;;2.45;;
25854;SDS011;13680;49.936;11.344;2023-07-31T04:08:43;6.88;;;2.45;;
25854;SDS011;13680;49.936;11.344;2023-07-31T04:11:09;6.53;;;2.10;;
25854;SDS011;13680;49.936;11.344;2023-07-31T04:13:34;11.30;;;2.17;;
25854;SDS011;13680;49.936;11.344;2023-07-31T04:16:00;5.82;;;1.85;;
25854;SDS011;13680;49.936;11.344;2023-07-31T04:18:25;6.03;;;2.58;;
25854;SDS011;13680;49.936;11.344;2023-07-31T04:20:51;11.20;;;2.53;;
25854;SDS011;13680;49.936;11.344;2023-07-31T04:23:16;7.05;;;1.67;;
25854;SDS011;13680;49.936;11.344;2023-07-31T04:25:41;10.32;;;2.58;;
25854;SDS011;13680;49.936;11.344;2023-07-31T04:28:07;9.88;;;2.15;;
25854;SDS011;13680;49.936;11.344;2023-07-31T04:30:33;7.32;;;2.15;;
25854;SDS011;13680;49.936;11.344;2023-07-31T04:32:58;9.52;;;1.80;;
25854;SDS011;13680;49.936;11.344;2023-07-31T04:35:23;8.73;;;2.08;;
25854;SDS011;13680;49.936;11.344;2023-07-31T04:37:48;8.75;;;1.95;;
25854;SDS011;13680;49.936;11.344;2023-07-31T04:40:14;6.38;;;2.15;;
25854;SDS011;13680;49.936;11.344;2023-07-31T04:42:40;9.05;;;2.10;;
25854;SDS011;13680;49.936;11.344;2023-07-31T04:45:06;7.47;;;2.17;;
25854;SDS011;13680;49.936;11.344;2023-07-31T04:47:32;6.25;;;2.10;;
25854;SDS011;13680;49.936;11.344;2023-07-31T04:49:58;6.53;;;2.55;;
25854;SDS011;13680;49.936;11.344;2023-07-31T04:52:23;7.43;;;1.85;;
25854;SDS011;13680;49.936;11.344;2023-07-31T04:54:48;6.22;;;2.15;;
25854;SDS011;13680;49.936;11.344;2023-07-31T04:57:14;4.82;;;1.63;;
25854;SDS011;13680;49.936;11.344;2023-07-31T04:59:39;5.85;;;2.10;;
25854;SDS011;13680;49.936;11.344;2023-07-31T05:02:05;5.80;;;2.10;;
25854;SDS011;13680;49.936;11.344;2023-07-31T05:04:30;8.70;;;2.30;;
25854;SDS011;13680;49.936;11.344;2023-07-31T05:06:55;7.47;;;2.40;;
25854;SDS011;13680;49.936;11.344;2023-07-31T05:09:21;5.93;;;1.67;;
25854;SDS011;13680;49.936;11.344;2023-07-31T05:11:46;8.40;;;2.28;;
25854;SDS011;13680;49.936;11.344;2023-07-31T05:14:11;10.52;;;2.15;;
25854;SDS011;13680;49.936;11.344;2023-07-31T05:16:37;9.63;;;2.17;;
25854;SDS011;13680;49.936;11.344;2023-07-31T05:19:02;4.88;;;1.85;;
25854;SDS011;13680;49.936;11.344;2023-07-31T05:21:27;7.00;;;1.98;;
25854;SDS011;13680;49.936;11.344;2023-07-31T05:23:53;9.35;;;2.70;;
25854;SDS011;13680;49.936;11.344;2023-07-31T05:26:18;8.65;;;2.10;;
25854;SDS011;13680;49.936;11.344;2023-07-31T05:28:43;6.22;;;1.70;;
25854;SDS011;13680;49.936;11.344;2023-07-31T05:31:09;7.93;;;1.98;;
25854;SDS011;13680;49.936;11.344;2023-07-31T05:33:34;5.28;;;2.03;;
25854;SDS011;13680;49.936;11.344;2023-07-31T05:35:59;12.25;;;2.10;;
25854;SDS011;13680;49.936;11.344;2023-07-31T05:38:24;7.65;;;2.30;;
25854;SDS011;13680;49.936;11.344;2023-07-31T05:40:50;6.63;;;2.08;;
25854;SDS011;13680;49.936;11.344;2023-07-31T05:43:15;5.38;;;1.80;;
25854;SDS011;13680;49.936;11.344;2023-07-31T05:45:43;5.13;;;2.35;;
25854;SDS011;13680;49.936;11.344;2023-07-31T05:48:09;6.63;;;1.83;;
25854;SDS011;13680;49.936;11.344;2023-07-31T05:50:34;5.18;;;2.13;;
25854;SDS011;13680;49.936;11.344;2023-07-31T05:52:59;6.28;;;2.10;;
25854;SDS011;13680;49.936;11.344;2023-07-31T05:55:25;7.25;;;2.03;;
25854;SDS011;13680;49.936;11.344;2023-07-31T05:57:54;7.28;;;2.15;;
25854;SDS011;13680;49.936;11.344;2023-07-31T06:00:19;8.88;;;2.28;;
25854;SDS011;13680;49.936;11.344;2023-07-31T06:02:46;8.82;;;3.25;;
25854;SDS011;13680;49.936;11.344;2023-07-31T06:05:14;10.05;;;2.20;;
25854;SDS011;13680;49.936;11.344;2023-07-31T06:07:40;7.32;;;2.45;;
25854;SDS011;13680;49.936;11.344;2023-07-31T06:10:05;5.32;;;1.95;;
25854;SDS011;13680;49.936;11.344;2023-07-31T06:12:32;4.25;;;1.67;;
25854;SDS011;13680;49.936;11.344;2023-07-31T06:14:57;9.13;;;1.88;;
25854;SDS011;13680;49.936;11.344;2023-07-31T06:17:23;11.55;;;2.30;;
25854;SDS011;13680;49.936;11.344;2023-07-31T06:19:49;5.95;;;1.60;;
25854;SDS011;13680;49.936;11.344;2023-07-31T06:22:14;2.83;;;1.30;;
25854;SDS011;13680;49.936;11.344;2023-07-31T06:24:40;4.22;;;1.55;;
25854;SDS011;13680;49.936;11.344;2023-07-31T06:27:05;6.43;;;1.50;;
25854;SDS011;13680;49.936;11.344;2023-07-31T06:29:31;9.32;;;1.75;;
25854;SDS011;13680;49.936;11.344;2023-07-31T06:31:57;4.50;;;1.70;;
25854;SDS011;13680;49.936;11.344;2023-07-31T06:34:22;5.88;;;1.70;;
25854;SDS011;13680;49.936;11.344;2023-07-31T06:36:47;6.13;;;1.88;;
25854;SDS011;13680;49.936;11.344;2023-07-31T06:39:13;5.05;;;1.63;;
25854;SDS011;13680;49.936;11.344;2023-07-31T06:41:38;4.55;;;1.60;;
25854;SDS011;13680;49.936;11.344;2023-07-31T06:44:03;5.65;;;1.52;;
25854;SDS011;13680;49.936;11.344;2023-07-31T06:46:29;9.13;;;2.28;;
25854;SDS011;13680;49.936;11.344;2023-07-31T06:48:54;5.13;;;1.63;;
25854;SDS011;13680;49.936;11.344;2023-07-31T06:51:20;6.70;;;1.95;;
25854;SDS011;13680;49.936;11.344;2023-07-31T06:53:45;5.70;;;1.83;;
25854;SDS011;13680;49.936;11.344;2023-07-31T06:56:11;3.88;;;1.60;;
25854;SDS011;13680;49.936;11.344;2023-07-31T06:58:36;14.43;;;2.10;;
25854;SDS011;13680;49.936;11.344;2023-07-31T07:01:02;9.82;;;2.13;;
25854;SDS011;13680;49.936;11.344;2023-07-31T07:03:27;8.50;;;1.85;;
25854;SDS011;13680;49.936;11.344;2023-07-31T07:05:52;2.50;;;1.38;;
25854;SDS011;13680;49.936;11.344;2023-07-31T07:08:18;4.95;;;1.92;;
25854;SDS011;13680;49.936;11.344;2023-07-31T07:10:43;11.77;;;2.00;;
25854;SDS011;13680;49.936;11.344;2023-07-31T07:13:08;7.13;;;2.80;;
25854;SDS011;13680;49.936;11.344;2023-07-31T07:15:34;6.72;;;2.05;;
25854;SDS011;13680;49.936;11.344;2023-07-31T07:18:00;7.45;;;1.98;;
25854;SDS011;13680;49.936;11.344;2023-07-31T07:20:25;7.13;;;1.90;;
25854;SDS011;13680;49.936;11.344;2023-07-31T07:22:50;5.07;;;1.63;;
25854;SDS011;13680;49.936;11.344;2023-07-31T07:25:16;6.25;;;2.10;;
25854;SDS011;13680;49.936;11.344;2023-07-31T07:27:41;4.78;;;1.70;;
25854;SDS011;13680;49.936;11.344;2023-07-31T07:30:07;3.20;;;1.42;;
25854;SDS011;13680;49.936;11.344;2023-07-31T07:32:32;8.13;;;1.90;;
25854;SDS011;13680;49.936;11.344;2023-07-31T07:34:58;4.22;;;1.48;;
25854;SDS011;13680;49.936;11.344;2023-07-31T07:37:23;7.10;;;2.05;;
25854;SDS011;13680;49.936;11.344;2023-07-31T07:39:49;7.03;;;1.75;;
25854;SDS011;13680;49.936;11.344;2023-07-31T07:42:15;10.40;;;2.30;;
25854;SDS011;13680;49.936;11.344;2023-07-31T07:44:40;5.03;;;1.13;;
25854;SDS011;13680;49.936;11.344;2023-07-31T07:47:05;5.82;;;1.90;;
25854;SDS011;13680;49.936;11.344;2023-07-31T07:49:33;8.02;;;1.67;;
25854;SDS011;13680;49.936;11.344;2023-07-31T07:52:00;5.00;;;1.15;;
25854;SDS011;13680;49.936;11.344;2023-07-31T07:54:25;5.82;;;1.50;;
25854;SDS011;13680;49.936;11.344;2023-07-31T07:56:51;3.22;;;1.42;;
25854;SDS011;13680;49.936;11.344;2023-07-31T07:59:16;3.17;;;1.17;;
25854;SDS011;13680;49.936;11.344;2023-07-31T08:01:42;4.05;;;1.40;;
25854;SDS011;13680;49.936;11.344;2023-07-31T08:04:07;5.78;;;1.60;;
25854;SDS011;13680;49.936;11.344;2023-07-31T08:06:32;3.45;;;1.33;;
25854;SDS011;13680;49.936;11.344;2023-07-31T08:08:59;4.07;;;1.48;;
25854;SDS011;13680;49.936;11.344;2023-07-31T08:11:24;2.60;;;1.27;;
25854;SDS011;13680;49.936;11.344;2023-07-31T08:13:50;7.30;;;1.65;;
25854;SDS011;13680;49.936;11.344;2023-07-31T08:16:15;4.03;;;1.23;;
25854;SDS011;13680;49.936;11.344;2023-07-31T08:18:41;4.80;;;1.35;;
25854;SDS011;13680;49.936;11.344;2023-07-31T08:21:07;5.57;;;1.73;;
25854;SDS011;13680;49.936;11.344;2023-07-31T08:23:33;3.90;;;1.52;;
25854;SDS011;13680;49.936;11.344;2023-07-31T08:25:58;5.60;;;1.20;;
25854;SDS011;13680;49.936;11.344;2023-07-31T08:28:24;5.40;;;1.60;;
25854;SDS011;13680;49.936;11.344;2023-07-31T08:30:50;4.63;;;1.77;;
25854;SDS011;13680;49.936;11.344;2023-07-31T08:33:16;4.45;;;1.40;;
25854;SDS011;13680;49.936;11.344;2023-07-31T08:35:41;2.63;;;1.05;;
25854;SDS011;13680;49.936;11.344;2023-07-31T08:38:06;6.18;;;1.23;;
25854;SDS011;13680;49.936;11.344;2023-07-31T08:40:32;4.00;;;1.10;;
25854;SDS011;13680;49.936;11.344;2023-07-31T08:43:01;3.97;;;1.50;;
25854;SDS011;13680;49.936;11.344;2023-07-31T08:45:27;7.78;;;1.40;;
25854;SDS011;13680;49.936;11.344;2023-07-31T08:47:53;6.45;;;1.50;;
25854;SDS011;13680;49.936;11.344;2023-07-31T08:50:21;6.88;;;1.00;;
25854;SDS011;13680;49.936;11.344;2023-07-31T08:52:47;7.45;;;1.40;;
25854;SDS011;13680;49.936;11.344;2023-07-31T08:55:14;3.42;;;1.20;;
25854;SDS011;13680;49.936;11.344;2023-07-31T08:57:39;9.25;;;2.08;;
25854;SDS011;13680;49.936;11.344;2023-07-31T09:00:07;4.70;;;1.73;;
25854;SDS011;13680;49.936;11.344;2023-07-31T09:05:28;8.38;;;1.52;;
25854;SDS011;13680;49.936;11.344;2023-07-31T09:07:54;5.35;;;1.52;;
25854;SDS011;13680;49.936;11.344;2023-07-31T09:10:21;2.97;;;1.40;;
25854;SDS011;13680;49.936;11.344;2023-07-31T09:12:46;8.45;;;1.60;;
25854;SDS011;13680;49.936;11.344;2023-07-31T09:15:13;4.32;;;1.75;;
25854;SDS011;13680;49.936;11.344;2023-07-31T09:17:39;7.50;;;1.30;;
25854;SDS011;13680;49.936;11.344;2023-07-31T09:20:17;9.02;;;1.92;;
25854;SDS011;13680;49.936;11.344;2023-07-31T09:22:44;9.98;;;2.67;;
25854;SDS011;13680;49.936;11.344;2023-07-31T09:27:50;7.63;;;2.10;;
25854;SDS011;13680;49.936;11.344;2023-07-31T09:30:16;5.57;;;2.20;;
25854;SDS011;13680;49.936;11.344;2023-07-31T09:32:43;5.18;;;2.20;;
25854;SDS011;13680;49.936;11.344;2023-07-31T09:35:13;5.82;;;2.13;;
25854;SDS011;13680;49.936;11.344;2023-07-31T09:37:52;14.98;;;1.80;;
25854;SDS011;13680;49.936;11.344;2023-07-31T09:40:28;4.85;;;2.03;;
25854;SDS011;13680;49.936;11.344;2023-07-31T09:43:02;5.28;;;1.98;;
25854;SDS011;13680;49.936;11.344;2023-07-31T09:45:33;7.10;;;2.33;;
25854;SDS011;13680;49.936;11.344;2023-07-31T09:48:01;8.73;;;1.95;;
25854;SDS011;13680;49.936;11.344;2023-07-31T09:50:27;6.07;;;2.28;;
25854;SDS011;13680;49.936;11.344;2023-07-31T09:52:54;5.50;;;2.08;;
25854;SDS011;13680;49.936;11.344;2023-07-31T09:55:19;5.28;;;1.95;;
25854;SDS011;13680;49.936;11.344;2023-07-31T09:57:48;4.07;;;1.77;;
25854;SDS011;13680;49.936;11.344;2023-07-31T10:00:15;8.43;;;1.85;;
25854;SDS011;13680;49.936;11.344;2023-07-31T10:02:46;11.48;;;2.20;;
25854;SDS011;13680;49.936;11.344;2023-07-31T10:05:13;4.55;;;1.75;;
25854;SDS011;13680;49.936;11.344;2023-07-31T10:07:41;4.97;;;2.25;;
25854;SDS011;13680;49.936;11.344;2023-07-31T10:10:08;7.43;;;2.30;;
25854;SDS011;13680;49.936;11.344;2023-07-31T10:12:34;11.02;;;2.45;;
25854;SDS011;13680;49.936;11.344;2023-07-31T10:15:01;4.80;;;2.00;;
25854;SDS011;13680;49.936;11.344;2023-07-31T10:17:27;6.78;;;1.98;;
25854;SDS011;13680;49.936;11.344;2023-07-31T10:19:54;3.70;;;1.50;;
25854;SDS011;13680;49.936;11.344;2023-07-31T10:22:22;6.72;;;2.10;;
25854;SDS011;13680;49.936;11.344;2023-07-31T10:24:48;4.35;;;1.83;;
25854;SDS011;13680;49.936;11.344;2023-07-31T10:27:17;6.63;;;2.17;;
25854;SDS011;13680;49.936;11.344;2023-07-31T10:29:43;7.20;;;2.03;;
25854;SDS011;13680;49.936;11.344;2023-07-31T10:32:12;5.07;;;2.10;;
25854;SDS011;13680;49.936;11.344;2023-07-31T10:34:38;6.47;;;2.55;;
25854;SDS011;13680;49.936;11.344;2023-07-31T10:40:00;4.22;;;1.60;;
25854;SDS011;13680;49.936;11.344;2023-07-31T10:42:36;4.55;;;1.73;;
25854;SDS011;13680;49.936;11.344;2023-07-31T10:45:09;4.18;;;2.00;;
25854;SDS011;13680;49.936;11.344;2023-07-31T10:47:38;5.88;;;1.52;;
25854;SDS011;13680;49.936;11.344;2023-07-31T10:52:46;4.18;;;1.70;;
25854;SDS011;13680;49.936;11.344;2023-07-31T10:57:52;6.05;;;1.50;;
25854;SDS011;13680;49.936;11.344;2023-07-31T11:02:58;5.78;;;1.90;;
25854;SDS011;13680;49.936;11.344;2023-07-31T11:05:40;5.15;;;2.00;;
25854;SDS011;13680;49.936;11.344;2023-07-31T11:13:11;5.32;;;2.13;;
25854;SDS011;13680;49.936;11.344;2023-07-31T11:15:36;4.53;;;1.50;;
25854;SDS011;13680;49.936;11.344;2023-07-31T11:18:02;4.25;;;1.60;;
25854;SDS011;13680;49.936;11.344;2023-07-31T11:20:33;6.68;;;2.20;;
25854;SDS011;13680;49.936;11.344;2023-07-31T11:23:00;3.72;;;1.80;;
25854;SDS011;13680;49.936;11.344;2023-07-31T11:25:28;4.10;;;1.77;;
25854;SDS011;13680;49.936;11.344;2023-07-31T11:27:55;7.20;;;2.15;;
25854;SDS011;13680;49.936;11.344;2023-07-31T11:30:21;5.35;;;1.92;;
25854;SDS011;13680;49.936;11.344;2023-07-31T11:32:47;7.15;;;2.00;;
25854;SDS011;13680;49.936;11.344;2023-07-31T11:35:12;3.65;;;1.88;;
25854;SDS011;13680;49.936;11.344;2023-07-31T11:37:38;10.32;;;2.20;;
25854;SDS011;13680;49.936;11.344;2023-07-31T11:40:07;6.90;;;1.92;;
25854;SDS011;13680;49.936;11.344;2023-07-31T11:42:34;6.85;;;2.20;;
25854;SDS011;13680;49.936;11.344;2023-07-31T11:45:02;9.98;;;2.65;;
25854;SDS011;13680;49.936;11.344;2023-07-31T11:47:28;6.47;;;2.13;;
25854;SDS011;13680;49.936;11.344;2023-07-31T11:49:53;5.28;;;2.20;;
25854;SDS011;13680;49.936;11.344;2023-07-31T11:52:18;5.03;;;2.10;;
25854;SDS011;13680;49.936;11.344;2023-07-31T11:54:48;4.40;;;1.73;;
25854;SDS011;13680;49.936;11.344;2023-07-31T11:57:14;3.88;;;2.00;;
25854;SDS011;13680;49.936;11.344;2023-07-31T11:59:40;4.90;;;1.95;;
25854;SDS011;13680;49.936;11.344;2023-07-31T12:02:05;10.32;;;2.08;;
25854;SDS011;13680;49.936;11.344;2023-07-31T12:04:31;6.20;;;1.95;;
25854;SDS011;13680;49.936;11.344;2023-07-31T12:06:56;4.82;;;1.73;;
25854;SDS011;13680;49.936;11.344;2023-07-31T12:09:21;5.70;;;2.35;;
25854;SDS011;13680;49.936;11.344;2023-07-31T12:11:47;8.93;;;2.50;;
25854;SDS011;13680;49.936;11.344;2023-07-31T12:14:23;6.90;;;2.15;;
25854;SDS011;13680;49.936;11.344;2023-07-31T12:16:56;6.10;;;1.95;;
25854;SDS011;13680;49.936;11.344;2023-07-31T12:19:24;4.55;;;2.28;;
25854;SDS011;13680;49.936;11.344;2023-07-31T12:21:55;5.65;;;2.08;;
25854;SDS011;13680;49.936;11.344;2023-07-31T12:24:24;6.63;;;1.98;;
25854;SDS011;13680;49.936;11.344;2023-07-31T12:26:51;3.90;;;1.83;;
25854;SDS011;13680;49.936;11.344;2023-07-31T12:29:17;4.60;;;2.53;;
25854;SDS011;13680;49.936;11.344;2023-07-31T12:31:43;7.43;;;2.17;;
25854;SDS011;13680;49.936;11.344;2023-07-31T12:34:15;6.82;;;2.50;;
25854;SDS011;13680;49.936;11.344;2023-07-31T12:36:42;7.20;;;2.30;;
25854;SDS011;13680;49.936;11.344;2023-07-31T12:39:08;5.03;;;2.33;;
25854;SDS011;13680;49.936;11.344;2023-07-31T12:41:34;6.97;;;2.10;;
25854;SDS011;13680;49.936;11.344;2023-07-31T12:43:59;4.95;;;2.33;;
25854;SDS011;13680;49.936;11.344;2023-07-31T12:46:24;5.35;;;2.60;;
25854;SDS011;13680;49.936;11.344;2023-07-31T12:48:49;5.82;;;2.33;;
25854;SDS011;13680;49.936;11.344;2023-07-31T12:51:15;3.28;;;2.00;;
25854;SDS011;13680;49.936;11.344;2023-07-31T12:53:40;4.72;;;2.13;;
25854;SDS011;13680;49.936;11.344;2023-07-31T12:56:05;5.25;;;1.95;;
25854;SDS011;13680;49.936;11.344;2023-07-31T12:58:31;8.25;;;2.70;;
25854;SDS011;13680;49.936;11.344;2023-07-31T13:00:56;6.32;;;2.50;;
25854;SDS011;13680;49.936;11.344;2023-07-31T13:03:21;6.85;;;2.78;;
25854;SDS011;13680;49.936;11.344;2023-07-31T13:05:47;5.32;;;2.00;;
25854;SDS011;13680;49.936;11.344;2023-07-31T13:08:12;6.53;;;2.22;;
25854;SDS011;13680;49.936;11.344;2023-07-31T13:10:38;5.20;;;2.13;;
25854;SDS011;13680;49.936;11.344;2023-07-31T13:13:04;8.60;;;2.65;;
25854;SDS011;13680;49.936;11.344;2023-07-31T13:15:29;5.20;;;2.42;;
25854;SDS011;13680;49.936;11.344;2023-07-31T13:17:54;5.20;;;2.00;;
25854;SDS011;13680;49.936;11.344;2023-07-31T13:20:20;6.25;;;2.40;;
25854;SDS011;13680;49.936;11.344;2023-07-31T13:22:45;6.30;;;2.60;;
25854;SDS011;13680;49.936;11.344;2023-07-31T13:25:10;4.65;;;2.10;;
25854;SDS011;13680;49.936;11.344;2023-07-31T13:27:36;5.53;;;1.90;;
25854;SDS011;13680;49.936;11.344;2023-07-31T13:30:01;6.28;;;2.38;;
25854;SDS011;13680;49.936;11.344;2023-07-31T13:32:27;9.20;;;2.15;;
25854;SDS011;13680;49.936;11.344;2023-07-31T13:34:52;10.13;;;2.50;;
25854;SDS011;13680;49.936;11.344;2023-07-31T13:37:17;5.65;;;2.30;;
25854;SDS011;13680;49.936;11.344;2023-07-31T13:39:43;8.02;;;2.63;;
25854;SDS011;13680;49.936;11.344;2023-07-31T13:42:08;7.30;;;2.40;;
25854;SDS011;13680;49.936;11.344;2023-07-31T13:44:36;3.45;;;1.83;;
25854;SDS011;13680;49.936;11.344;2023-07-31T13:47:04;5.18;;;2.00;;
25854;SDS011;13680;49.936;11.344;2023-07-31T13:49:30;9.25;;;2.80;;
25854;SDS011;13680;49.936;11.344;2023-07-31T13:51:56;5.40;;;2.13;;
25854;SDS011;13680;49.936;11.344;2023-07-31T13:54:22;6.82;;;2.75;;
25854;SDS011;13680;49.936;11.344;2023-07-31T13:56:48;7.00;;;2.20;;
25854;SDS011;13680;49.936;11.344;2023-07-31T13:59:14;6.20;;;2.40;;
25854;SDS011;13680;49.936;11.344;2023-07-31T14:01:43;5.60;;;2.28;;
25854;SDS011;13680;49.936;11.344;2023-07-31T14:04:09;6.28;;;2.30;;
25854;SDS011;13680;49.936;11.344;2023-07-31T14:06:34;4.55;;;2.08;;
25854;SDS011;13680;49.936;11.344;2023-07-31T14:08:59;4.68;;;2.25;;
25854;SDS011;13680;49.936;11.344;2023-07-31T14:11:25;8.00;;;2.03;;
25854;SDS011;13680;49.936;11.344;2023-07-31T14:13:51;6.53;;;2.35;;
25854;SDS011;13680;49.936;11.344;2023-07-31T14:16:16;4.90;;;2.35;;
25854;SDS011;13680;49.936;11.344;2023-07-31T14:18:42;6.47;;;2.30;;
25854;SDS011;13680;49.936;11.344;2023-07-31T14:21:07;8.90;;;2.55;;
25854;SDS011;13680;49.936;11.344;2023-07-31T14:23:33;4.93;;;2.30;;
25854;SDS011;13680;49.936;11.344;2023-07-31T14:25:58;4.85;;;2.10;;
25854;SDS011;13680;49.936;11.344;2023-07-31T14:28:24;6.70;;;2.22;;
25854;SDS011;13680;49.936;11.344;2023-07-31T14:30:49;6.50;;;2.50;;
25854;SDS011;13680;49.936;11.344;2023-07-31T14:33:14;10.05;;;2.08;;
25854;SDS011;13680;49.936;11.344;2023-07-31T14:35:40;4.90;;;2.50;;
25854;SDS011;13680;49.936;11.344;2023-07-31T14:38:05;5.85;;;2.30;;
25854;SDS011;13680;49.936;11.344;2023-07-31T14:40:30;4.35;;;2.10;;
25854;SDS011;13680;49.936;11.344;2023-07-31T14:42:56;3.03;;;1.90;;
25854;SDS011;13680;49.936;11.344;2023-07-31T14:45:21;4.43;;;2.15;;
25854;SDS011;13680;49.936;11.344;2023-07-31T14:47:46;6.43;;;2.55;;
25854;SDS011;13680;49.936;11.344;2023-07-31T14:50:12;4.90;;;2.20;;
25854;SDS011;13680;49.936;11.344;2023-07-31T14:52:37;3.60;;;2.30;;